Terminal Aerodrome Forecast
Issued by NWS Twin Cities, MN

Home | Current Version | Previous Version | Text Only | Print | Product List | Glossary On
Versions: 1 2 3 4 5 6 7 8 9 10 11 12 13 14 15 16 17 18 19 20 21 22 23 24 25 26 27
000
FTUS43 KMPX 010800 AAA
TAFMSP
TAF AMD
KMSP 010835Z 0109/0212 14012KT P6SM SCT020 OVC100
     FM011300 14009KT P6SM -SHRA SCT008 OVC015
     FM011800 15009KT 6SM -SHRA BR BKN008 OVC012
     FM012200 15007KT P6SM VCSH SCT008 OVC015
     FM020200 20005KT P6SM SCT015 BKN070
     FM020700 26003KT 4SM BR BKN007=

USA.gov is the U.S. government's official web portal to all federal, state and local government web resources and services.